createdAt,value
2023-04-19T00:01:20.272Z,45.57
2023-04-19T00:03:47.972Z,46.00
2023-04-19T00:06:15.155Z,46.02
2023-04-19T00:08:42.433Z,46.11
2023-04-19T00:11:09.145Z,45.49
2023-04-19T00:13:35.766Z,45.26
2023-04-19T00:16:02.541Z,45.08
2023-04-19T00:18:30.174Z,45.65
2023-04-19T00:20:57.434Z,45.91
2023-04-19T00:23:25.750Z,45.81
2023-04-19T00:25:52.383Z,46.43
2023-04-19T00:28:19.180Z,45.58
2023-04-19T00:30:45.945Z,45.33
2023-04-19T00:33:15.495Z,44.87
2023-04-19T00:35:42.478Z,45.32
2023-04-19T00:38:09.132Z,45.60
2023-04-19T00:40:37.206Z,45.59
2023-04-19T00:43:04.888Z,44.77
2023-04-19T00:45:32.636Z,45.13
2023-04-19T00:48:00.075Z,45.71
2023-04-19T00:50:27.930Z,45.50
2023-04-19T00:52:55.704Z,45.38
2023-04-19T00:55:24.714Z,45.90
2023-04-19T00:57:52.356Z,45.65
2023-04-19T01:00:20.116Z,45.91
2023-04-19T01:02:47.731Z,45.30
2023-04-19T01:05:14.862Z,44.88
2023-04-19T01:07:42.091Z,46.62
2023-04-19T01:10:09.180Z,46.22
2023-04-19T01:12:35.990Z,45.33
2023-04-19T01:15:03.524Z,45.61
2023-04-19T01:17:31.806Z,45.44
2023-04-19T01:20:08.218Z,45.27
2023-04-19T01:22:37.737Z,46.01
2023-04-19T01:25:05.124Z,44.90
2023-04-19T01:27:31.849Z,44.72
2023-04-19T01:29:58.482Z,45.07
2023-04-19T01:32:26.963Z,45.33
2023-04-19T01:34:55.883Z,45.23
2023-04-19T01:37:22.526Z,44.25
2023-04-19T01:39:49.335Z,45.79
2023-04-19T01:42:15.918Z,46.08
2023-04-19T01:44:42.518Z,45.94
2023-04-19T01:47:09.330Z,47.78
2023-04-19T01:49:36.133Z,46.59
2023-04-19T01:52:02.806Z,46.42
2023-04-19T01:54:29.454Z,46.71
2023-04-19T01:56:56.087Z,48.52
2023-04-19T01:59:22.816Z,47.51
2023-04-19T02:01:50.570Z,47.53
2023-04-19T02:04:20.199Z,47.48
2023-04-19T02:06:46.938Z,48.19
2023-04-19T02:09:13.519Z,48.13
2023-04-19T02:11:42.206Z,47.92
2023-04-19T02:14:08.742Z,49.33
2023-04-19T02:16:36.241Z,48.82
2023-04-19T02:19:03.458Z,48.77
2023-04-19T02:21:30.095Z,49.03
2023-04-19T02:23:56.741Z,49.33
2023-04-19T02:26:24.610Z,49.80
2023-04-19T02:28:52.228Z,49.23
2023-04-19T02:31:18.944Z,48.22
2023-04-19T02:33:46.895Z,48.92
2023-04-19T02:36:13.608Z,48.76
2023-04-19T02:38:40.281Z,49.93
2023-04-19T02:41:07.073Z,49.12
2023-04-19T02:43:33.725Z,47.71
2023-04-19T02:46:00.432Z,49.59
2023-04-19T02:48:27.185Z,49.25
2023-04-19T02:50:53.842Z,48.98
2023-04-19T02:53:20.825Z,48.95
2023-04-19T02:55:49.070Z,48.94
2023-04-19T02:58:18.866Z,50.08
2023-04-19T03:01:14.917Z,49.92
2023-04-19T03:03:41.926Z,49.13
2023-04-19T03:06:09.193Z,50.32
2023-04-19T03:08:36.450Z,49.80
2023-04-19T03:11:03.077Z,50.48
2023-04-19T03:13:30.969Z,51.24
2023-04-19T03:15:57.646Z,50.37
2023-04-19T03:18:24.844Z,48.58
2023-04-19T03:20:54.400Z,49.52
2023-04-19T03:23:21.449Z,49.35
2023-04-19T03:25:49.567Z,49.77
2023-04-19T03:28:24.957Z,51.40
2023-04-19T03:31:23.927Z,52.33
2023-04-19T03:33:53.129Z,51.99
2023-04-19T03:36:24.035Z,51.83
2023-04-19T03:38:51.502Z,52.79
2023-04-19T03:41:24.240Z,52.02
2023-04-19T03:43:59.822Z,51.62
2023-04-19T03:46:26.743Z,51.18
2023-04-19T03:48:54.028Z,50.75
2023-04-19T03:51:22.723Z,51.38
2023-04-19T03:53:49.377Z,50.60
2023-04-19T03:56:18.348Z,50.04
2023-04-19T03:58:44.987Z,51.01
2023-04-19T04:01:21.393Z,49.67
2023-04-19T04:03:49.685Z,49.23
2023-04-19T04:06:17.998Z,49.69
2023-04-19T04:08:44.776Z,50.49
2023-04-19T04:11:11.637Z,50.68
2023-04-19T04:13:38.890Z,49.61
2023-04-19T04:16:16.351Z,49.09
2023-04-19T04:18:43.428Z,48.96
